sensor_id;sensor_type;location;lat;lon;timestamp;temperature;humidity
9772;DHT22;4925;52.588;13.370;2023-06-05T00:02:08;16.40;71.60
9772;DHT22;4925;52.588;13.370;2023-06-05T00:04:33;16.40;72.60
9772;DHT22;4925;52.588;13.370;2023-06-05T00:07:01;16.30;74.00
9772;DHT22;4925;52.588;13.370;2023-06-05T00:09:27;16.30;75.20
9772;DHT22;4925;52.588;13.370;2023-06-05T00:11:53;16.20;76.80
9772;DHT22;4925;52.588;13.370;2023-06-05T00:14:18;16.20;77.70
9772;DHT22;4925;52.588;13.370;2023-06-05T00:16:44;16.10;78.80
9772;DHT22;4925;52.588;13.370;2023-06-05T00:19:10;16.10;79.00
9772;DHT22;4925;52.588;13.370;2023-06-05T00:21:36;16.10;80.30
9772;DHT22;4925;52.588;13.370;2023-06-05T00:24:02;16.10;80.90
9772;DHT22;4925;52.588;13.370;2023-06-05T00:26:28;16.00;81.60
9772;DHT22;4925;52.588;13.370;2023-06-05T00:28:54;15.90;81.80
9772;DHT22;4925;52.588;13.370;2023-06-05T00:31:19;15.80;83.00
9772;DHT22;4925;52.588;13.370;2023-06-05T00:33:49;15.70;83.70
9772;DHT22;4925;52.588;13.370;2023-06-05T00:36:17;15.70;84.50
9772;DHT22;4925;52.588;13.370;2023-06-05T00:38:44;15.70;85.40
9772;DHT22;4925;52.588;13.370;2023-06-05T00:41:10;15.60;86.10
9772;DHT22;4925;52.588;13.370;2023-06-05T00:43:36;15.60;87.10
9772;DHT22;4925;52.588;13.370;2023-06-05T00:46:03;15.70;88.00
9772;DHT22;4925;52.588;13.370;2023-06-05T00:48:30;15.70;88.20
9772;DHT22;4925;52.588;13.370;2023-06-05T00:50:57;15.70;88.40
9772;DHT22;4925;52.588;13.370;2023-06-05T00:53:24;15.60;89.20
9772;DHT22;4925;52.588;13.370;2023-06-05T00:55:51;15.50;90.00
9772;DHT22;4925;52.588;13.370;2023-06-05T00:58:17;15.50;90.40
9772;DHT22;4925;52.588;13.370;2023-06-05T01:00:43;15.50;91.00
9772;DHT22;4925;52.588;13.370;2023-06-05T01:03:11;15.50;90.90
9772;DHT22;4925;52.588;13.370;2023-06-05T01:05:38;15.50;91.20
9772;DHT22;4925;52.588;13.370;2023-06-05T01:08:04;15.40;91.80
9772;DHT22;4925;52.588;13.370;2023-06-05T01:10:31;15.40;91.50
9772;DHT22;4925;52.588;13.370;2023-06-05T01:13:04;15.40;91.60
9772;DHT22;4925;52.588;13.370;2023-06-05T01:15:32;15.30;92.00
9772;DHT22;4925;52.588;13.370;2023-06-05T01:21:22;15.40;92.20
9772;DHT22;4925;52.588;13.370;2023-06-05T01:23:48;15.40;92.10
9772;DHT22;4925;52.588;13.370;2023-06-05T01:26:19;15.40;92.20
9772;DHT22;4925;52.588;13.370;2023-06-05T01:28:49;15.30;92.50
9772;DHT22;4925;52.588;13.370;2023-06-05T01:31:18;15.20;92.90
9772;DHT22;4925;52.588;13.370;2023-06-05T01:34:08;15.20;93.10
9772;DHT22;4925;52.588;13.370;2023-06-05T01:36:39;15.20;93.10
9772;DHT22;4925;52.588;13.370;2023-06-05T01:39:06;15.30;93.10
9772;DHT22;4925;52.588;13.370;2023-06-05T01:41:32;15.30;93.50
9772;DHT22;4925;52.588;13.370;2023-06-05T01:44:00;15.30;93.20
9772;DHT22;4925;52.588;13.370;2023-06-05T01:46:26;15.20;93.30
9772;DHT22;4925;52.588;13.370;2023-06-05T01:48:52;15.30;93.40
9772;DHT22;4925;52.588;13.370;2023-06-05T01:51:19;15.20;93.50
9772;DHT22;4925;52.588;13.370;2023-06-05T01:53:45;15.20;93.80
9772;DHT22;4925;52.588;13.370;2023-06-05T01:56:15;15.10;94.10
9772;DHT22;4925;52.588;13.370;2023-06-05T01:58:46;15.00;94.40
9772;DHT22;4925;52.588;13.370;2023-06-05T02:01:11;14.90;94.90
9772;DHT22;4925;52.588;13.370;2023-06-05T02:03:37;14.90;95.10
9772;DHT22;4925;52.588;13.370;2023-06-05T02:06:03;14.80;95.50
9772;DHT22;4925;52.588;13.370;2023-06-05T02:08:29;14.70;95.70
9772;DHT22;4925;52.588;13.370;2023-06-05T02:10:54;14.70;96.10
9772;DHT22;4925;52.588;13.370;2023-06-05T02:13:20;14.60;96.20
9772;DHT22;4925;52.588;13.370;2023-06-05T02:15:48;14.60;96.50
9772;DHT22;4925;52.588;13.370;2023-06-05T02:18:15;14.60;96.70
9772;DHT22;4925;52.588;13.370;2023-06-05T02:20:42;14.60;96.90
9772;DHT22;4925;52.588;13.370;2023-06-05T02:23:08;14.50;96.80
9772;DHT22;4925;52.588;13.370;2023-06-05T02:25:33;14.50;97.00
9772;DHT22;4925;52.588;13.370;2023-06-05T02:27:59;14.50;97.10
9772;DHT22;4925;52.588;13.370;2023-06-05T02:30:25;14.50;97.30
9772;DHT22;4925;52.588;13.370;2023-06-05T02:32:51;14.50;97.30
9772;DHT22;4925;52.588;13.370;2023-06-05T02:35:22;14.60;97.30
9772;DHT22;4925;52.588;13.370;2023-06-05T02:37:48;14.50;97.30
9772;DHT22;4925;52.588;13.370;2023-06-05T02:40:14;14.50;97.40
9772;DHT22;4925;52.588;13.370;2023-06-05T02:42:40;14.50;97.50
9772;DHT22;4925;52.588;13.370;2023-06-05T02:45:07;14.50;97.70
9772;DHT22;4925;52.588;13.370;2023-06-05T02:47:33;14.50;97.70
9772;DHT22;4925;52.588;13.370;2023-06-05T02:50:00;14.50;98.00
9772;DHT22;4925;52.588;13.370;2023-06-05T02:52:25;14.40;98.10
9772;DHT22;4925;52.588;13.370;2023-06-05T02:54:52;14.40;98.10
9772;DHT22;4925;52.588;13.370;2023-06-05T02:57:18;14.40;98.20
9772;DHT22;4925;52.588;13.370;2023-06-05T02:59:47;14.30;98.20
9772;DHT22;4925;52.588;13.370;2023-06-05T03:02:12;14.30;98.20
9772;DHT22;4925;52.588;13.370;2023-06-05T03:04:38;14.30;98.20
9772;DHT22;4925;52.588;13.370;2023-06-05T03:07:08;14.20;98.50
9772;DHT22;4925;52.588;13.370;2023-06-05T03:09:35;14.10;98.70
9772;DHT22;4925;52.588;13.370;2023-06-05T03:12:01;14.10;99.00
9772;DHT22;4925;52.588;13.370;2023-06-05T03:14:27;14.00;99.50
9772;DHT22;4925;52.588;13.370;2023-06-05T03:16:53;14.00;99.80
9772;DHT22;4925;52.588;13.370;2023-06-05T03:19:22;14.00;99.90
9772;DHT22;4925;52.588;13.370;2023-06-05T03:21:47;14.00;99.90
9772;DHT22;4925;52.588;13.370;2023-06-05T03:24:15;13.90;99.90
9772;DHT22;4925;52.588;13.370;2023-06-05T03:26:42;13.90;99.90
9772;DHT22;4925;52.588;13.370;2023-06-05T03:29:09;13.90;99.90
9772;DHT22;4925;52.588;13.370;2023-06-05T03:31:35;13.90;99.90
9772;DHT22;4925;52.588;13.370;2023-06-05T03:34:01;13.90;99.90
9772;DHT22;4925;52.588;13.370;2023-06-05T03:36:29;13.90;99.90
9772;DHT22;4925;52.588;13.370;2023-06-05T03:38:56;14.00;99.90
9772;DHT22;4925;52.588;13.370;2023-06-05T03:41:22;14.00;99.90
9772;DHT22;4925;52.588;13.370;2023-06-05T03:43:48;14.00;99.90
9772;DHT22;4925;52.588;13.370;2023-06-05T03:46:15;14.00;99.90
9772;DHT22;4925;52.588;13.370;2023-06-05T03:48:48;14.00;99.90
9772;DHT22;4925;52.588;13.370;2023-06-05T03:51:27;14.10;99.90
9772;DHT22;4925;52.588;13.370;2023-06-05T03:53:59;14.10;99.90
9772;DHT22;4925;52.588;13.370;2023-06-05T03:56:26;14.10;99.90
9772;DHT22;4925;52.588;13.370;2023-06-05T03:59:00;14.10;99.90
9772;DHT22;4925;52.588;13.370;2023-06-05T04:01:34;14.20;99.90
9772;DHT22;4925;52.588;13.370;2023-06-05T04:04:03;14.20;99.90
9772;DHT22;4925;52.588;13.370;2023-06-05T04:06:30;14.30;99.90
9772;DHT22;4925;52.588;13.370;2023-06-05T04:08:58;14.40;99.90
9772;DHT22;4925;52.588;13.370;2023-06-05T04:11:24;14.50;99.90
9772;DHT22;4925;52.588;13.370;2023-06-05T04:13:53;14.60;99.90
9772;DHT22;4925;52.588;13.370;2023-06-05T04:16:19;14.70;99.30
9772;DHT22;4925;52.588;13.370;2023-06-05T04:18:44;14.70;98.70
9772;DHT22;4925;52.588;13.370;2023-06-05T04:21:10;14.80;98.40
9772;DHT22;4925;52.588;13.370;2023-06-05T04:23:37;14.80;98.00
9772;DHT22;4925;52.588;13.370;2023-06-05T04:26:03;14.80;98.20
9772;DHT22;4925;52.588;13.370;2023-06-05T04:28:30;15.00;97.90
9772;DHT22;4925;52.588;13.370;2023-06-05T04:30:56;15.00;97.30
9772;DHT22;4925;52.588;13.370;2023-06-05T04:33:22;15.10;97.30
9772;DHT22;4925;52.588;13.370;2023-06-05T04:35:47;15.10;97.10
9772;DHT22;4925;52.588;13.370;2023-06-05T04:38:13;15.20;97.20
9772;DHT22;4925;52.588;13.370;2023-06-05T04:40:39;15.40;96.90
9772;DHT22;4925;52.588;13.370;2023-06-05T04:43:06;15.50;96.70
9772;DHT22;4925;52.588;13.370;2023-06-05T04:45:34;15.70;96.60
9772;DHT22;4925;52.588;13.370;2023-06-05T04:48:00;15.70;96.30
9772;DHT22;4925;52.588;13.370;2023-06-05T04:50:27;15.80;95.80
9772;DHT22;4925;52.588;13.370;2023-06-05T04:52:53;15.90;96.00
9772;DHT22;4925;52.588;13.370;2023-06-05T04:55:19;16.00;95.50
9772;DHT22;4925;52.588;13.370;2023-06-05T04:57:46;16.10;95.40
9772;DHT22;4925;52.588;13.370;2023-06-05T05:00:17;16.30;95.30
9772;DHT22;4925;52.588;13.370;2023-06-05T05:02:43;16.30;95.10
9772;DHT22;4925;52.588;13.370;2023-06-05T05:05:09;16.40;95.10
9772;DHT22;4925;52.588;13.370;2023-06-05T05:07:42;16.50;95.10
9772;DHT22;4925;52.588;13.370;2023-06-05T05:10:11;16.60;94.80
9772;DHT22;4925;52.588;13.370;2023-06-05T05:12:37;16.70;94.70
9772;DHT22;4925;52.588;13.370;2023-06-05T05:15:03;16.80;94.40
9772;DHT22;4925;52.588;13.370;2023-06-05T05:17:30;16.90;94.30
9772;DHT22;4925;52.588;13.370;2023-06-05T05:19:56;17.10;94.00
9772;DHT22;4925;52.588;13.370;2023-06-05T05:22:22;17.10;93.30
9772;DHT22;4925;52.588;13.370;2023-06-05T05:24:48;17.20;92.20
9772;DHT22;4925;52.588;13.370;2023-06-05T05:27:14;17.30;91.90
9772;DHT22;4925;52.588;13.370;2023-06-05T05:29:40;17.30;92.60
9772;DHT22;4925;52.588;13.370;2023-06-05T05:32:05;17.40;92.30
9772;DHT22;4925;52.588;13.370;2023-06-05T05:34:31;17.40;91.30
9772;DHT22;4925;52.588;13.370;2023-06-05T05:36:59;17.50;90.30
9772;DHT22;4925;52.588;13.370;2023-06-05T05:39:25;17.50;90.20
9772;DHT22;4925;52.588;13.370;2023-06-05T05:41:50;17.60;90.30
9772;DHT22;4925;52.588;13.370;2023-06-05T05:44:16;17.80;90.40
9772;DHT22;4925;52.588;13.370;2023-06-05T05:46:44;17.90;90.60
9772;DHT22;4925;52.588;13.370;2023-06-05T05:49:10;18.10;89.60
9772;DHT22;4925;52.588;13.370;2023-06-05T05:51:36;18.30;88.40
9772;DHT22;4925;52.588;13.370;2023-06-05T05:54:02;18.40;87.30
9772;DHT22;4925;52.588;13.370;2023-06-05T05:56:27;18.40;85.60
9772;DHT22;4925;52.588;13.370;2023-06-05T05:58:54;18.60;87.60
9772;DHT22;4925;52.588;13.370;2023-06-05T06:01:20;18.80;85.70
9772;DHT22;4925;52.588;13.370;2023-06-05T06:03:47;18.90;84.70
9772;DHT22;4925;52.588;13.370;2023-06-05T06:06:13;19.10;82.80
9772;DHT22;4925;52.588;13.370;2023-06-05T06:08:39;19.20;82.50
9772;DHT22;4925;52.588;13.370;2023-06-05T06:11:05;19.30;80.60
9772;DHT22;4925;52.588;13.370;2023-06-05T06:13:32;19.30;79.90
9772;DHT22;4925;52.588;13.370;2023-06-05T06:16:01;19.40;79.30
9772;DHT22;4925;52.588;13.370;2023-06-05T06:18:28;19.50;78.90
9772;DHT22;4925;52.588;13.370;2023-06-05T06:20:53;19.60;78.90
9772;DHT22;4925;52.588;13.370;2023-06-05T06:23:20;19.70;78.30
9772;DHT22;4925;52.588;13.370;2023-06-05T06:25:46;19.80;78.10
9772;DHT22;4925;52.588;13.370;2023-06-05T06:28:12;20.00;77.20
9772;DHT22;4925;52.588;13.370;2023-06-05T06:30:37;20.10;76.30
9772;DHT22;4925;52.588;13.370;2023-06-05T06:33:03;20.20;76.00
9772;DHT22;4925;52.588;13.370;2023-06-05T06:35:29;20.40;75.30
9772;DHT22;4925;52.588;13.370;2023-06-05T06:37:57;20.50;75.20
9772;DHT22;4925;52.588;13.370;2023-06-05T06:40:24;20.60;75.10
9772;DHT22;4925;52.588;13.370;2023-06-05T06:42:50;20.70;73.30
9772;DHT22;4925;52.588;13.370;2023-06-05T06:45:19;20.70;73.20
9772;DHT22;4925;52.588;13.370;2023-06-05T06:47:46;20.80;73.50
9772;DHT22;4925;52.588;13.370;2023-06-05T06:50:12;20.90;72.30
9772;DHT22;4925;52.588;13.370;2023-06-05T06:52:39;21.00;72.20
9772;DHT22;4925;52.588;13.370;2023-06-05T06:55:05;21.20;71.90
9772;DHT22;4925;52.588;13.370;2023-06-05T06:57:31;21.30;71.70
9772;DHT22;4925;52.588;13.370;2023-06-05T06:59:57;21.30;71.20
9772;DHT22;4925;52.588;13.370;2023-06-05T07:02:24;21.40;71.20
9772;DHT22;4925;52.588;13.370;2023-06-05T07:04:50;21.40;72.50
9772;DHT22;4925;52.588;13.370;2023-06-05T07:07:19;21.50;71.70
9772;DHT22;4925;52.588;13.370;2023-06-05T07:09:49;21.60;70.10
9772;DHT22;4925;52.588;13.370;2023-06-05T07:12:17;21.70;68.70
9772;DHT22;4925;52.588;13.370;2023-06-05T07:14:45;21.80;67.90
9772;DHT22;4925;52.588;13.370;2023-06-05T07:17:11;22.00;66.80
9772;DHT22;4925;52.588;13.370;2023-06-05T07:19:37;22.20;65.40
9772;DHT22;4925;52.588;13.370;2023-06-05T07:22:03;22.30;65.70
9772;DHT22;4925;52.588;13.370;2023-06-05T07:24:30;22.40;62.90
9772;DHT22;4925;52.588;13.370;2023-06-05T07:26:58;22.50;62.10
9772;DHT22;4925;52.588;13.370;2023-06-05T07:29:25;22.80;61.60
9772;DHT22;4925;52.588;13.370;2023-06-05T07:31:52;22.80;61.60
9772;DHT22;4925;52.588;13.370;2023-06-05T07:34:19;22.40;58.40
9772;DHT22;4925;52.588;13.370;2023-06-05T07:36:47;22.70;60.10
9772;DHT22;4925;52.588;13.370;2023-06-05T07:39:14;22.80;59.90
9772;DHT22;4925;52.588;13.370;2023-06-05T07:41:40;23.00;57.80
9772;DHT22;4925;52.588;13.370;2023-06-05T07:44:16;23.10;57.10
9772;DHT22;4925;52.588;13.370;2023-06-05T07:46:43;23.30;56.30
9772;DHT22;4925;52.588;13.370;2023-06-05T07:49:10;23.30;55.60
9772;DHT22;4925;52.588;13.370;2023-06-05T07:51:36;23.50;55.60
9772;DHT22;4925;52.588;13.370;2023-06-05T07:54:09;23.70;53.20
9772;DHT22;4925;52.588;13.370;2023-06-05T07:56:35;23.70;51.60
9772;DHT22;4925;52.588;13.370;2023-06-05T07:59:02;23.60;50.30
9772;DHT22;4925;52.588;13.370;2023-06-05T08:01:32;23.80;51.10
9772;DHT22;4925;52.588;13.370;2023-06-05T08:04:05;24.00;50.60
9772;DHT22;4925;52.588;13.370;2023-06-05T08:06:31;23.80;47.20
9772;DHT22;4925;52.588;13.370;2023-06-05T08:08:58;23.80;48.30
9772;DHT22;4925;52.588;13.370;2023-06-05T08:11:24;24.10;49.00
9772;DHT22;4925;52.588;13.370;2023-06-05T08:13:50;23.90;45.90
9772;DHT22;4925;52.588;13.370;2023-06-05T08:16:16;24.10;45.20
9772;DHT22;4925;52.588;13.370;2023-06-05T08:18:42;24.30;44.60
9772;DHT22;4925;52.588;13.370;2023-06-05T08:21:08;24.40;43.50
9772;DHT22;4925;52.588;13.370;2023-06-05T08:23:33;24.50;42.40
9772;DHT22;4925;52.588;13.370;2023-06-05T08:25:59;24.60;42.00
9772;DHT22;4925;52.588;13.370;2023-06-05T08:28:24;24.70;41.00
9772;DHT22;4925;52.588;13.370;2023-06-05T08:30:50;24.90;39.80
9772;DHT22;4925;52.588;13.370;2023-06-05T08:33:20;25.00;39.00
9772;DHT22;4925;52.588;13.370;2023-06-05T08:35:46;25.40;37.20
9772;DHT22;4925;52.588;13.370;2023-06-05T08:38:12;25.70;35.30
9772;DHT22;4925;52.588;13.370;2023-06-05T08:40:39;25.80;34.60
9772;DHT22;4925;52.588;13.370;2023-06-05T08:43:05;25.20;31.90
9772;DHT22;4925;52.588;13.370;2023-06-05T08:45:31;25.60;33.40
9772;DHT22;4925;52.588;13.370;2023-06-05T08:48:00;25.90;35.60
9772;DHT22;4925;52.588;13.370;2023-06-05T08:50:29;26.20;33.20
9772;DHT22;4925;52.588;13.370;2023-06-05T08:52:59;26.20;29.50
9772;DHT22;4925;52.588;13.370;2023-06-05T08:55:38;26.70;34.10
9772;DHT22;4925;52.588;13.370;2023-06-05T08:58:07;27.20;31.50
9772;DHT22;4925;52.588;13.370;2023-06-05T09:00:41;27.50;31.30
9772;DHT22;4925;52.588;13.370;2023-06-05T09:03:14;27.20;27.90
9772;DHT22;4925;52.588;13.370;2023-06-05T09:05:48;27.70;28.70
9772;DHT22;4925;52.588;13.370;2023-06-05T09:08:30;28.20;27.00
9772;DHT22;4925;52.588;13.370;2023-06-05T09:11:26;28.40;25.30
9772;DHT22;4925;52.588;13.370;2023-06-05T09:13:56;28.80;25.10
9772;DHT22;4925;52.588;13.370;2023-06-05T09:16:32;29.10;24.80
9772;DHT22;4925;52.588;13.370;2023-06-05T09:18:58;29.40;21.60
9772;DHT22;4925;52.588;13.370;2023-06-05T09:21:26;29.50;22.70
9772;DHT22;4925;52.588;13.370;2023-06-05T09:24:18;29.60;25.20
9772;DHT22;4925;52.588;13.370;2023-06-05T09:26:47;29.60;20.90
9772;DHT22;4925;52.588;13.370;2023-06-05T09:29:19;29.60;20.90
9772;DHT22;4925;52.588;13.370;2023-06-05T09:31:44;29.80;18.60
9772;DHT22;4925;52.588;13.370;2023-06-05T09:34:11;29.40;17.70
9772;DHT22;4925;52.588;13.370;2023-06-05T09:36:45;29.30;17.80
9772;DHT22;4925;52.588;13.370;2023-06-05T09:39:15;29.00;18.00
9772;DHT22;4925;52.588;13.370;2023-06-05T09:41:45;29.10;17.80
9772;DHT22;4925;52.588;13.370;2023-06-05T09:44:11;29.30;17.30
9772;DHT22;4925;52.588;13.370;2023-06-05T09:47:00;29.50;17.10
9772;DHT22;4925;52.588;13.370;2023-06-05T09:49:30;28.70;16.30
9772;DHT22;4925;52.588;13.370;2023-06-05T09:52:01;29.50;16.50
9772;DHT22;4925;52.588;13.370;2023-06-05T09:54:30;29.60;16.00
9772;DHT22;4925;52.588;13.370;2023-06-05T09:56:58;29.90;16.30
9772;DHT22;4925;52.588;13.370;2023-06-05T09:59:28;30.20;16.20
9772;DHT22;4925;52.588;13.370;2023-06-05T10:01:56;30.40;16.00
9772;DHT22;4925;52.588;13.370;2023-06-05T10:04:25;30.30;15.60
9772;DHT22;4925;52.588;13.370;2023-06-05T10:06:54;30.50;15.80
9772;DHT22;4925;52.588;13.370;2023-06-05T10:09:20;30.60;15.40
9772;DHT22;4925;52.588;13.370;2023-06-05T10:11:49;30.80;14.80
9772;DHT22;4925;52.588;13.370;2023-06-05T10:14:16;30.80;14.10
9772;DHT22;4925;52.588;13.370;2023-06-05T10:16:43;30.60;14.40
9772;DHT22;4925;52.588;13.370;2023-06-05T10:19:11;30.40;14.50
9772;DHT22;4925;52.588;13.370;2023-06-05T10:21:38;31.10;14.10
9772;DHT22;4925;52.588;13.370;2023-06-05T10:24:12;31.10;13.60
9772;DHT22;4925;52.588;13.370;2023-06-05T10:31:52;31.00;13.30
9772;DHT22;4925;52.588;13.370;2023-06-05T10:39:49;31.50;13.60
9772;DHT22;4925;52.588;13.370;2023-06-05T10:42:25;31.60;12.50
9772;DHT22;4925;52.588;13.370;2023-06-05T10:44:52;31.90;13.20
9772;DHT22;4925;52.588;13.370;2023-06-05T10:52:42;32.30;12.70
9772;DHT22;4925;52.588;13.370;2023-06-05T10:55:09;32.60;12.70
9772;DHT22;4925;52.588;13.370;2023-06-05T11:06:22;30.60;11.50
9772;DHT22;4925;52.588;13.370;2023-06-05T11:09:08;31.00;12.20
9772;DHT22;4925;52.588;13.370;2023-06-05T11:14:45;32.10;11.70
9772;DHT22;4925;52.588;13.370;2023-06-05T11:17:31;32.30;11.40
9772;DHT22;4925;52.588;13.370;2023-06-05T11:19:57;32.30;11.50
9772;DHT22;4925;52.588;13.370;2023-06-05T11:22:23;32.20;10.70
9772;DHT22;4925;52.588;13.370;2023-06-05T11:25:24;32.40;10.80
9772;DHT22;4925;52.588;13.370;2023-06-05T11:27:58;32.90;10.70
9772;DHT22;4925;52.588;13.370;2023-06-05T11:30:31;33.20;10.30
9772;DHT22;4925;52.588;13.370;2023-06-05T11:33:07;33.40;10.10
9772;DHT22;4925;52.588;13.370;2023-06-05T11:35:35;33.70;10.20
9772;DHT22;4925;52.588;13.370;2023-06-05T11:38:18;34.00;9.80
9772;DHT22;4925;52.588;13.370;2023-06-05T11:40:44;33.50;8.90
9772;DHT22;4925;52.588;13.370;2023-06-05T11:43:12;33.60;9.50
9772;DHT22;4925;52.588;13.370;2023-06-05T11:45:39;34.10;9.40
9772;DHT22;4925;52.588;13.370;2023-06-05T11:48:09;34.40;9.20
9772;DHT22;4925;52.588;13.370;2023-06-05T11:50:36;34.40;8.50
9772;DHT22;4925;52.588;13.370;2023-06-05T11:53:09;34.60;8.50
9772;DHT22;4925;52.588;13.370;2023-06-05T11:55:35;34.50;8.10
9772;DHT22;4925;52.588;13.370;2023-06-05T11:58:27;34.40;7.30
9772;DHT22;4925;52.588;13.370;2023-06-05T12:03:38;34.90;7.40
9772;DHT22;4925;52.588;13.370;2023-06-05T12:06:05;34.80;7.60
9772;DHT22;4925;52.588;13.370;2023-06-05T12:08:33;34.80;7.20
9772;DHT22;4925;52.588;13.370;2023-06-05T12:11:02;34.60;6.70
9772;DHT22;4925;52.588;13.370;2023-06-05T12:13:50;34.30;6.70
9772;DHT22;4925;52.588;13.370;2023-06-05T12:16:29;34.70;7.30
9772;DHT22;4925;52.588;13.370;2023-06-05T12:18:56;34.70;6.80
9772;DHT22;4925;52.588;13.370;2023-06-05T12:21:24;34.80;7.30
9772;DHT22;4925;52.588;13.370;2023-06-05T12:23:51;35.10;7.40
9772;DHT22;4925;52.588;13.370;2023-06-05T12:26:17;35.20;6.80
9772;DHT22;4925;52.588;13.370;2023-06-05T12:28:44;35.50;7.10
9772;DHT22;4925;52.588;13.370;2023-06-05T12:31:34;35.90;6.70
9772;DHT22;4925;52.588;13.370;2023-06-05T12:34:01;35.50;6.20
9772;DHT22;4925;52.588;13.370;2023-06-05T12:36:27;35.40;6.40
9772;DHT22;4925;52.588;13.370;2023-06-05T12:38:54;35.50;6.30
9772;DHT22;4925;52.588;13.370;2023-06-05T12:41:20;35.70;5.90
9772;DHT22;4925;52.588;13.370;2023-06-05T12:43:46;35.50;6.20
9772;DHT22;4925;52.588;13.370;2023-06-05T12:46:23;34.90;6.10
9772;DHT22;4925;52.588;13.370;2023-06-05T12:48:49;34.50;6.60
9772;DHT22;4925;52.588;13.370;2023-06-05T12:51:15;34.50;6.50
9772;DHT22;4925;52.588;13.370;2023-06-05T12:53:40;34.20;6.60
9772;DHT22;4925;52.588;13.370;2023-06-05T12:56:06;33.70;6.80
9772;DHT22;4925;52.588;13.370;2023-06-05T12:58:32;33.60;6.50
9772;DHT22;4925;52.588;13.370;2023-06-05T13:00:58;33.40;6.60
9772;DHT22;4925;52.588;13.370;2023-06-05T13:03:24;33.10;7.10
9772;DHT22;4925;52.588;13.370;2023-06-05T13:05:50;32.80;6.60
9772;DHT22;4925;52.588;13.370;2023-06-05T13:08:15;32.30;6.90
9772;DHT22;4925;52.588;13.370;2023-06-05T13:10:41;32.80;7.00
9772;DHT22;4925;52.588;13.370;2023-06-05T13:13:07;33.10;7.20
9772;DHT22;4925;52.588;13.370;2023-06-05T13:15:33;33.10;7.30
9772;DHT22;4925;52.588;13.370;2023-06-05T13:17:58;32.50;7.40
9772;DHT22;4925;52.588;13.370;2023-06-05T13:20:24;32.30;8.40
9772;DHT22;4925;52.588;13.370;2023-06-05T13:22:50;32.10;8.20
9772;DHT22;4925;52.588;13.370;2023-06-05T13:25:16;32.30;8.40
9772;DHT22;4925;52.588;13.370;2023-06-05T13:27:42;32.10;8.50
9772;DHT22;4925;52.588;13.370;2023-06-05T13:30:08;31.90;8.50
9772;DHT22;4925;52.588;13.370;2023-06-05T13:32:35;32.10;8.60
9772;DHT22;4925;52.588;13.370;2023-06-05T13:35:03;32.10;8.40
9772;DHT22;4925;52.588;13.370;2023-06-05T13:37:30;31.90;8.40
9772;DHT22;4925;52.588;13.370;2023-06-05T13:39:56;30.60;8.40
9772;DHT22;4925;52.588;13.370;2023-06-05T13:42:21;30.60;9.10
9772;DHT22;4925;52.588;13.370;2023-06-05T13:44:47;30.80;9.70
9772;DHT22;4925;52.588;13.370;2023-06-05T13:47:13;30.60;9.80
9772;DHT22;4925;52.588;13.370;2023-06-05T13:49:40;30.50;10.10
9772;DHT22;4925;52.588;13.370;2023-06-05T13:52:06;30.50;10.50
9772;DHT22;4925;52.588;13.370;2023-06-05T13:54:32;30.60;9.90
9772;DHT22;4925;52.588;13.370;2023-06-05T13:56:58;30.70;9.90
9772;DHT22;4925;52.588;13.370;2023-06-05T13:59:25;30.70;9.80
9772;DHT22;4925;52.588;13.370;2023-06-05T14:01:50;30.70;10.10
9772;DHT22;4925;52.588;13.370;2023-06-05T14:04:16;30.60;10.20
9772;DHT22;4925;52.588;13.370;2023-06-05T14:06:42;30.50;10.60
9772;DHT22;4925;52.588;13.370;2023-06-05T14:09:08;30.50;10.30
9772;DHT22;4925;52.588;13.370;2023-06-05T14:11:34;30.10;10.20
9772;DHT22;4925;52.588;13.370;2023-06-05T14:14:00;30.20;10.50
9772;DHT22;4925;52.588;13.370;2023-06-05T14:16:27;30.30;10.40
9772;DHT22;4925;52.588;13.370;2023-06-05T14:18:52;30.20;10.40
9772;DHT22;4925;52.588;13.370;2023-06-05T14:21:18;30.10;10.20
9772;DHT22;4925;52.588;13.370;2023-06-05T14:23:44;30.20;9.90
9772;DHT22;4925;52.588;13.370;2023-06-05T14:26:10;30.00;9.80
9772;DHT22;4925;52.588;13.370;2023-06-05T14:28:36;29.50;10.20
9772;DHT22;4925;52.588;13.370;2023-06-05T14:31:02;29.30;9.90
9772;DHT22;4925;52.588;13.370;2023-06-05T14:33:27;29.20;10.20
9772;DHT22;4925;52.588;13.370;2023-06-05T14:35:53;28.90;10.00
9772;DHT22;4925;52.588;13.370;2023-06-05T14:38:19;29.10;10.20
9772;DHT22;4925;52.588;13.370;2023-06-05T14:40:45;29.00;10.00
9772;DHT22;4925;52.588;13.370;2023-06-05T14:43:10;29.00;10.50
9772;DHT22;4925;52.588;13.370;2023-06-05T14:45:36;29.10;10.70
9772;DHT22;4925;52.588;13.370;2023-06-05T14:48:02;29.00;10.90
9772;DHT22;4925;52.588;13.370;2023-06-05T14:50:28;29.10;11.00
9772;DHT22;4925;52.588;13.370;2023-06-05T14:52:54;29.00;11.40
9772;DHT22;4925;52.588;13.370;2023-06-05T14:55:20;29.10;11.00
9772;DHT22;4925;52.588;13.370;2023-06-05T14:57:46;29.20;11.00
9772;DHT22;4925;52.588;13.370;2023-06-05T15:00:12;29.30;10.80
9772;DHT22;4925;52.588;13.370;2023-06-05T15:02:38;29.30;10.90
9772;DHT22;4925;52.588;13.370;2023-06-05T15:05:04;29.30;10.50
9772;DHT22;4925;52.588;13.370;2023-06-05T15:07:40;29.40;10.50
9772;DHT22;4925;52.588;13.370;2023-06-05T15:10:07;29.40;10.10
9772;DHT22;4925;52.588;13.370;2023-06-05T15:12:34;29.60;10.10
9772;DHT22;4925;52.588;13.370;2023-06-05T15:15:00;29.60;9.80
9772;DHT22;4925;52.588;13.370;2023-06-05T15:17:26;29.60;10.40
9772;DHT22;4925;52.588;13.370;2023-06-05T15:19:51;29.70;10.80
9772;DHT22;4925;52.588;13.370;2023-06-05T15:22:17;29.70;10.50
9772;DHT22;4925;52.588;13.370;2023-06-05T15:24:43;29.70;10.80
9772;DHT22;4925;52.588;13.370;2023-06-05T15:27:08;29.90;10.70
9772;DHT22;4925;52.588;13.370;2023-06-05T15:29:36;30.00;10.90
9772;DHT22;4925;52.588;13.370;2023-06-05T15:32:01;30.10;10.80
9772;DHT22;4925;52.588;13.370;2023-06-05T15:34:27;30.10;11.00
9772;DHT22;4925;52.588;13.370;2023-06-05T15:36:53;30.00;10.20
9772;DHT22;4925;52.588;13.370;2023-06-05T15:39:18;30.10;11.10
9772;DHT22;4925;52.588;13.370;2023-06-05T15:41:44;29.80;11.00
9772;DHT22;4925;52.588;13.370;2023-06-05T15:44:13;29.80;11.00
9772;DHT22;4925;52.588;13.370;2023-06-05T15:46:39;29.80;10.70
9772;DHT22;4925;52.588;13.370;2023-06-05T15:49:05;29.70;10.80
9772;DHT22;4925;52.588;13.370;2023-06-05T15:51:31;29.60;10.70
9772;DHT22;4925;52.588;13.370;2023-06-05T15:53:57;29.50;10.50
9772;DHT22;4925;52.588;13.370;2023-06-05T15:56:25;29.00;11.40
9772;DHT22;4925;52.588;13.370;2023-06-05T15:58:52;28.90;11.70
9772;DHT22;4925;52.588;13.370;2023-06-05T16:01:18;28.70;11.40
9772;DHT22;4925;52.588;13.370;2023-06-05T16:03:44;28.70;11.30
9772;DHT22;4925;52.588;13.370;2023-06-05T16:06:09;28.70;11.40
9772;DHT22;4925;52.588;13.370;2023-06-05T16:08:39;28.60;11.40
9772;DHT22;4925;52.588;13.370;2023-06-05T16:11:05;28.50;11.20
9772;DHT22;4925;52.588;13.370;2023-06-05T16:13:31;28.40;11.50
9772;DHT22;4925;52.588;13.370;2023-06-05T16:15:57;28.40;11.50
9772;DHT22;4925;52.588;13.370;2023-06-05T16:18:22;28.30;11.70
9772;DHT22;4925;52.588;13.370;2023-06-05T16:20:48;28.20;12.20
9772;DHT22;4925;52.588;13.370;2023-06-05T16:23:14;28.00;12.70
9772;DHT22;4925;52.588;13.370;2023-06-05T16:25:39;28.10;12.60